EWG20F EDDN-LGKR
Flight info
| Callsign | EWG20F |
|---|---|
| Flight time | N/A |
| Altitude | 37000 |
| Route | BOLSI1C/10 BOLSI Y166 DKB N869 DINKU M867 XERUM DCT BAVAX DCT RADIZ DCT UNIPA DCT VAKSU DCT RODON DCT LIMJA N732 PITAS |
| Aircraft | A319/M-SDE3FGHIRWY/LB1 |
Departure
| Time | N/A |
|---|---|
| Airport | Nuremberg Airport (EDDN) |
Arrival
| Time | 2026-04-30 13:48 |
|---|---|
| Airport | Corfu Ioannis Kapodistrias International Airport (LGKR) |
| Time | Latitude | Longitude | Altitude | Speed | Heading |
|---|---|---|---|---|---|
| 2026-04-30 12:48 | 44.92205 | 15.58257 | 37338 ft | 489 kts | 144° |
| 2026-04-30 12:48 | 44.89448 | 15.61083 | 37334 ft | 489 kts | 144° |
| 2026-04-30 12:48 | 44.83980 | 15.66689 | 37334 ft | 489 kts | 144° |
| 2026-04-30 12:49 | 44.78478 | 15.72332 | 37329 ft | 489 kts | 144° |
| 2026-04-30 12:49 | 44.72967 | 15.77958 | 37324 ft | 489 kts | 144° |
| 2026-04-30 12:50 | 44.67454 | 15.83572 | 37318 ft | 489 kts | 144° |
| 2026-04-30 12:50 | 44.61938 | 15.89169 | 37313 ft | 489 kts | 144° |
| 2026-04-30 12:51 | 44.56419 | 15.94756 | 37305 ft | 489 kts | 144° |
| 2026-04-30 12:51 | 44.50901 | 16.00332 | 37301 ft | 489 kts | 145° |
| 2026-04-30 12:52 | 44.45385 | 16.05899 | 37296 ft | 489 kts | 145° |
| 2026-04-30 12:52 | 44.39863 | 16.11456 | 37284 ft | 489 kts | 145° |
| 2026-04-30 12:53 | 44.34340 | 16.17005 | 37269 ft | 489 kts | 145° |
| 2026-04-30 12:53 | 44.28811 | 16.22553 | 37262 ft | 490 kts | 146° |
| 2026-04-30 12:54 | 44.23272 | 16.28083 | 37255 ft | 490 kts | 146° |
| 2026-04-30 12:54 | 44.17729 | 16.33608 | 37255 ft | 490 kts | 146° |
| 2026-04-30 12:55 | 44.12186 | 16.39123 | 37258 ft | 489 kts | 146° |
| 2026-04-30 12:55 | 44.06646 | 16.44620 | 37254 ft | 489 kts | 146° |
| 2026-04-30 12:56 | 44.01146 | 16.50076 | 37250 ft | 489 kts | 146° |
| 2026-04-30 12:56 | 43.95710 | 16.55765 | 37239 ft | 489 kts | 144° |
| 2026-04-30 12:57 | 43.90331 | 16.61556 | 37229 ft | 489 kts | 144° |
| 2026-04-30 12:57 | 43.84933 | 16.67294 | 37222 ft | 489 kts | 144° |
| 2026-04-30 12:58 | 43.79503 | 16.72979 | 37212 ft | 489 kts | 145° |
| 2026-04-30 12:58 | 43.74061 | 16.78654 | 37207 ft | 489 kts | 145° |
| 2026-04-30 12:59 | 43.69535 | 16.83372 | 37194 ft | 490 kts | 145° |
| 2026-04-30 12:59 | 43.63214 | 16.89960 | 37186 ft | 490 kts | 145° |
| 2026-04-30 13:00 | 43.57767 | 16.95616 | 37175 ft | 490 kts | 146° |
| 2026-04-30 13:00 | 43.53198 | 17.00348 | 37169 ft | 490 kts | 146° |
| 2026-04-30 13:01 | 43.47773 | 17.05962 | 37159 ft | 491 kts | 146° |
| 2026-04-30 13:01 | 43.42309 | 17.11597 | 37153 ft | 491 kts | 146° |
| 2026-04-30 13:02 | 43.36831 | 17.17233 | 37146 ft | 492 kts | 146° |
| 2026-04-30 13:02 | 43.30435 | 17.23818 | 37137 ft | 492 kts | 146° |
| 2026-04-30 13:03 | 43.25879 | 17.28490 | 37132 ft | 492 kts | 146° |
| 2026-04-30 13:03 | 43.20383 | 17.34104 | 37131 ft | 493 kts | 146° |
| 2026-04-30 13:04 | 43.14879 | 17.39716 | 37134 ft | 493 kts | 147° |
| 2026-04-30 13:04 | 43.09371 | 17.45317 | 37132 ft | 493 kts | 147° |
| 2026-04-30 13:05 | 43.03862 | 17.50914 | 37126 ft | 493 kts | 147° |
| 2026-04-30 13:06 | 42.95584 | 17.59285 | 37117 ft | 494 kts | 147° |
| 2026-04-30 13:06 | 42.90059 | 17.64865 | 37112 ft | 494 kts | 147° |
| 2026-04-30 13:07 | 42.84538 | 17.70441 | 37111 ft | 494 kts | 147° |
| 2026-04-30 13:07 | 42.79210 | 17.75792 | 37113 ft | 494 kts | 147° |
| 2026-04-30 13:08 | 42.73674 | 17.81340 | 37106 ft | 494 kts | 147° |
| 2026-04-30 13:08 | 42.68135 | 17.86887 | 37102 ft | 495 kts | 148° |
| 2026-04-30 13:09 | 42.62621 | 17.92395 | 37096 ft | 495 kts | 148° |
| 2026-04-30 13:09 | 42.57073 | 17.97920 | 37095 ft | 495 kts | 148° |
| 2026-04-30 13:10 | 42.51513 | 18.03451 | 37094 ft | 495 kts | 148° |
| 2026-04-30 13:10 | 42.45946 | 18.08975 | 37093 ft | 496 kts | 148° |
| 2026-04-30 13:11 | 42.40374 | 18.14492 | 37097 ft | 496 kts | 148° |
| 2026-04-30 13:11 | 42.34801 | 18.19989 | 37104 ft | 496 kts | 148° |
| 2026-04-30 13:12 | 42.29221 | 18.25481 | 37107 ft | 496 kts | 148° |
| 2026-04-30 13:12 | 42.23638 | 18.30976 | 37109 ft | 496 kts | 149° |
| 2026-04-30 13:13 | 42.15261 | 18.39178 | 37111 ft | 496 kts | 149° |
| 2026-04-30 13:14 | 42.06878 | 18.47360 | 37106 ft | 496 kts | 149° |
| 2026-04-30 13:14 | 41.98510 | 18.55575 | 37104 ft | 497 kts | 148° |
| 2026-04-30 13:15 | 41.90315 | 18.64172 | 37102 ft | 498 kts | 146° |
| 2026-04-30 13:16 | 41.84872 | 18.69907 | 37096 ft | 497 kts | 147° |
| 2026-04-30 13:16 | 41.79399 | 18.75588 | 37097 ft | 497 kts | 147° |
| 2026-04-30 13:17 | 41.71198 | 18.84003 | 37101 ft | 497 kts | 147° |
| 2026-04-30 13:18 | 41.62963 | 18.92453 | 37106 ft | 497 kts | 147° |
| 2026-04-30 13:18 | 41.54740 | 19.00890 | 37107 ft | 497 kts | 147° |
| 2026-04-30 13:19 | 41.49258 | 19.06500 | 37102 ft | 496 kts | 147° |
| 2026-04-30 13:19 | 41.43412 | 19.11157 | 37094 ft | 484 kts | 164° |
| 2026-04-30 13:20 | 41.37129 | 19.14251 | 37093 ft | 481 kts | 166° |
| 2026-04-30 13:20 | 41.30843 | 19.17313 | 37095 ft | 481 kts | 166° |
| 2026-04-30 13:21 | 41.24582 | 19.20373 | 37073 ft | 473 kts | 166° |
| 2026-04-30 13:22 | 41.15467 | 19.24826 | 37075 ft | 462 kts | 166° |
| 2026-04-30 13:22 | 41.06455 | 19.29180 | 37069 ft | 461 kts | 166° |
| 2026-04-30 13:23 | 40.97436 | 19.33533 | 37058 ft | 459 kts | 166° |
| 2026-04-30 13:24 | 40.85480 | 19.39288 | 37033 ft | 458 kts | 166° |
| 2026-04-30 13:25 | 40.73507 | 19.45039 | 37036 ft | 458 kts | 166° |
| 2026-04-30 13:26 | 40.58525 | 19.52185 | 37043 ft | 458 kts | 166° |
| 2026-04-30 13:28 | 40.43537 | 19.59310 | 37049 ft | 458 kts | 166° |
| 2026-04-30 13:28 | 40.34543 | 19.63558 | 37043 ft | 458 kts | 166° |
| 2026-04-30 13:29 | 40.28475 | 19.66408 | 35513 ft | 466 kts | 166° |
| 2026-04-30 13:29 | 40.22436 | 19.69266 | 34174 ft | 458 kts | 165° |
| 2026-04-30 13:30 | 40.13478 | 19.73473 | 31156 ft | 460 kts | 165° |
| 2026-04-30 13:31 | 40.07417 | 19.76303 | 28690 ft | 465 kts | 165° |
| 2026-04-30 13:31 | 39.99282 | 19.80106 | 25039 ft | 468 kts | 165° |
| 2026-04-30 13:32 | 39.93525 | 19.81484 | 22718 ft | 445 kts | 190° |
| 2026-04-30 13:32 | 39.87806 | 19.79304 | 20407 ft | 421 kts | 205° |
| 2026-04-30 13:33 | 39.82335 | 19.76629 | 19260 ft | 420 kts | 205° |
| 2026-04-30 13:33 | 39.76892 | 19.73954 | 19042 ft | 415 kts | 205° |
| 2026-04-30 13:34 | 39.74200 | 19.72632 | 18881 ft | 410 kts | 205° |
| 2026-04-30 13:34 | 39.66285 | 19.68781 | 16718 ft | 399 kts | 205° |
| 2026-04-30 13:35 | 39.63694 | 19.67529 | 15922 ft | 397 kts | 205° |
| 2026-04-30 13:35 | 39.58588 | 19.65072 | 14675 ft | 386 kts | 205° |
| 2026-04-30 13:36 | 39.53596 | 19.62696 | 13251 ft | 378 kts | 205° |
| 2026-04-30 13:36 | 39.51140 | 19.61525 | 12501 ft | 374 kts | 205° |
| 2026-04-30 13:36 | 39.46327 | 19.59213 | 11019 ft | 364 kts | 205° |
| 2026-04-30 13:37 | 39.44023 | 19.58100 | 10663 ft | 345 kts | 205° |
| 2026-04-30 13:37 | 39.39881 | 19.56140 | 10404 ft | 292 kts | 205° |
| 2026-04-30 13:38 | 39.36181 | 19.55030 | 10150 ft | 265 kts | 180° |
| 2026-04-30 13:38 | 39.34407 | 19.55652 | 9790 ft | 267 kts | 158° |
| 2026-04-30 13:38 | 39.32056 | 19.59349 | 8981 ft | 277 kts | 106° |
| 2026-04-30 13:39 | 39.32546 | 19.64102 | 8225 ft | 269 kts | 54° |
| 2026-04-30 13:39 | 39.35060 | 19.67515 | 7499 ft | 261 kts | 39° |
| 2026-04-30 13:40 | 39.36361 | 19.69132 | 7151 ft | 259 kts | 39° |
| 2026-04-30 13:40 | 39.37649 | 19.70743 | 6805 ft | 257 kts | 40° |
| 2026-04-30 13:40 | 39.38741 | 19.72578 | 6461 ft | 259 kts | 56° |
| 2026-04-30 13:40 | 39.39458 | 19.74711 | 6109 ft | 260 kts | 71° |
| 2026-04-30 13:41 | 39.39770 | 19.77009 | 5754 ft | 259 kts | 85° |
| 2026-04-30 13:41 | 39.39804 | 19.79297 | 5406 ft | 257 kts | 87° |
| 2026-04-30 13:41 | 39.39833 | 19.81598 | 5068 ft | 254 kts | 87° |
| 2026-04-30 13:41 | 39.39864 | 19.83887 | 4516 ft | 259 kts | 87° |
| 2026-04-30 13:42 | 39.39897 | 19.86209 | 4078 ft | 252 kts | 87° |
| 2026-04-30 13:42 | 39.40110 | 19.88353 | 3927 ft | 230 kts | 72° |
| 2026-04-30 13:42 | 39.40938 | 19.91981 | 3741 ft | 191 kts | 71° |
| 2026-04-30 13:43 | 39.41295 | 19.93565 | 3637 ft | 175 kts | 71° |
| 2026-04-30 13:43 | 39.41636 | 19.95069 | 3558 ft | 176 kts | 71° |
| 2026-04-30 13:43 | 39.42230 | 19.96392 | 3488 ft | 173 kts | 41° |
| 2026-04-30 13:43 | 39.43257 | 19.97114 | 3355 ft | 168 kts | 10° |
| 2026-04-30 13:44 | 39.44394 | 19.97045 | 3089 ft | 164 kts | 342° |
| 2026-04-30 13:44 | 39.45486 | 19.96620 | 2862 ft | 164 kts | 341° |
| 2026-04-30 13:44 | 39.46578 | 19.96205 | 2627 ft | 162 kts | 342° |
| 2026-04-30 13:44 | 39.47641 | 19.95805 | 2403 ft | 155 kts | 341° |
| 2026-04-30 13:45 | 39.49587 | 19.95078 | 1993 ft | 136 kts | 340° |
| 2026-04-30 13:45 | 39.50479 | 19.94745 | 1803 ft | 131 kts | 341° |
| 2026-04-30 13:45 | 39.51302 | 19.94437 | 1635 ft | 130 kts | 340° |
| 2026-04-30 13:46 | 39.52162 | 19.94106 | 1455 ft | 128 kts | 339° |
| 2026-04-30 13:46 | 39.52999 | 19.93675 | 1267 ft | 129 kts | 333° |
| 2026-04-30 13:46 | 39.53826 | 19.93234 | 1094 ft | 128 kts | 337° |
| 2026-04-30 13:46 | 39.54667 | 19.92855 | 900 ft | 127 kts | 338° |
| 2026-04-30 13:47 | 39.55503 | 19.92493 | 768 ft | 126 kts | 341° |
| 2026-04-30 13:47 | 39.56356 | 19.92224 | 598 ft | 125 kts | 344° |
| 2026-04-30 13:47 | 39.57218 | 19.91967 | 470 ft | 128 kts | 347° |
| 2026-04-30 13:47 | 39.58078 | 19.91769 | 280 ft | 122 kts | 347° |
| 2026-04-30 13:48 | 39.58908 | 19.91560 | 139 ft | 119 kts | 348° |
| 2026-04-30 13:48 | 39.59447 | 19.91419 | 34 ft | 119 kts | 346° |
| 2026-04-30 13:48 | 39.60144 | 19.91227 | 23 ft | 81 kts | 349° |
| 2026-04-30 13:48 | 39.60653 | 19.91099 | 19 ft | 49 kts | 348° |
| 2026-04-30 13:49 | 39.60965 | 19.91017 | 20 ft | 36 kts | 348° |
| 2026-04-30 13:49 | 39.61054 | 19.91086 | 20 ft | 0 kts | 59° |
| 2026-04-30 13:50 | 39.61048 | 19.91122 | 19 ft | 7 kts | 143° |
| 2026-04-30 13:50 | 39.60968 | 19.91146 | 21 ft | 18 kts | 169° |
| 2026-04-30 13:51 | 39.60827 | 19.91183 | 19 ft | 23 kts | 168° |
| 2026-04-30 13:51 | 39.60691 | 19.91218 | 18 ft | 15 kts | 168° |
| 2026-04-30 13:51 | 39.60605 | 19.91243 | 19 ft | 10 kts | 140° |
| 2026-04-30 13:51 | 39.60583 | 19.91323 | 19 ft | 8 kts | 84° |
| 2026-04-30 13:52 | 39.60591 | 19.91377 | 19 ft | 5 kts | 78° |
| 2026-04-30 13:52 | 39.60593 | 19.91394 | 19 ft | 0 kts | 80° |